sensor_id;sensor_type;location;lat;lon;timestamp;P1;durP1;ratioP1;P2;durP2;ratioP2
56997;SDS011;42890;44.244;22.530;2023-09-19T00:02:23;14.73;;;12.90;;
56997;SDS011;42890;44.244;22.530;2023-09-19T00:04:49;14.10;;;12.45;;
56997;SDS011;42890;44.244;22.530;2023-09-19T00:07:17;31.90;;;14.63;;
56997;SDS011;42890;44.244;22.530;2023-09-19T00:09:43;16.10;;;13.65;;
56997;SDS011;42890;44.244;22.530;2023-09-19T00:12:09;15.40;;;12.75;;
56997;SDS011;42890;44.244;22.530;2023-09-19T00:14:38;15.10;;;12.80;;
56997;SDS011;42890;44.244;22.530;2023-09-19T00:17:04;16.60;;;12.82;;
56997;SDS011;42890;44.244;22.530;2023-09-19T00:19:33;15.75;;;12.60;;
56997;SDS011;42890;44.244;22.530;2023-09-19T00:22:00;16.25;;;13.65;;
56997;SDS011;42890;44.244;22.530;2023-09-19T00:24:26;18.65;;;13.45;;
56997;SDS011;42890;44.244;22.530;2023-09-19T00:26:59;17.95;;;12.77;;
56997;SDS011;42890;44.244;22.530;2023-09-19T00:29:25;16.25;;;14.07;;
56997;SDS011;42890;44.244;22.530;2023-09-19T00:31:54;16.05;;;13.82;;
56997;SDS011;42890;44.244;22.530;2023-09-19T00:34:22;17.60;;;12.52;;
56997;SDS011;42890;44.244;22.530;2023-09-19T00:36:48;15.77;;;12.95;;
56997;SDS011;42890;44.244;22.530;2023-09-19T00:39:14;14.65;;;13.02;;
56997;SDS011;42890;44.244;22.530;2023-09-19T00:41:40;16.08;;;14.13;;
56997;SDS011;42890;44.244;22.530;2023-09-19T00:44:09;22.92;;;13.93;;
56997;SDS011;42890;44.244;22.530;2023-09-19T00:46:37;16.77;;;13.07;;
56997;SDS011;42890;44.244;22.530;2023-09-19T00:49:03;15.18;;;13.00;;
56997;SDS011;42890;44.244;22.530;2023-09-19T00:51:29;17.20;;;13.15;;
56997;SDS011;42890;44.244;22.530;2023-09-19T00:53:56;16.02;;;13.32;;
56997;SDS011;42890;44.244;22.530;2023-09-19T00:56:24;16.80;;;14.38;;
56997;SDS011;42890;44.244;22.530;2023-09-19T00:58:50;15.85;;;12.93;;
56997;SDS011;42890;44.244;22.530;2023-09-19T01:01:16;15.13;;;12.38;;
56997;SDS011;42890;44.244;22.530;2023-09-19T01:03:42;15.02;;;12.40;;
56997;SDS011;42890;44.244;22.530;2023-09-19T01:06:10;18.42;;;12.57;;
56997;SDS011;42890;44.244;22.530;2023-09-19T01:08:37;14.82;;;12.48;;
56997;SDS011;42890;44.244;22.530;2023-09-19T01:11:45;18.83;;;13.80;;
56997;SDS011;42890;44.244;22.530;2023-09-19T01:13:55;12.98;;;11.63;;
56997;SDS011;42890;44.244;22.530;2023-09-19T01:16:27;17.33;;;12.68;;
56997;SDS011;42890;44.244;22.530;2023-09-19T01:19:06;18.10;;;12.98;;
56997;SDS011;42890;44.244;22.530;2023-09-19T01:21:42;14.23;;;12.60;;
56997;SDS011;42890;44.244;22.530;2023-09-19T01:31:59;17.98;;;12.07;;
56997;SDS011;42890;44.244;22.530;2023-09-19T01:34:42;13.43;;;11.75;;
56997;SDS011;42890;44.244;22.530;2023-09-19T01:37:10;15.55;;;11.77;;
56997;SDS011;42890;44.244;22.530;2023-09-19T01:39:36;13.23;;;11.90;;
56997;SDS011;42890;44.244;22.530;2023-09-19T01:49:55;13.57;;;12.10;;
56997;SDS011;42890;44.244;22.530;2023-09-19T01:52:22;16.08;;;12.43;;
56997;SDS011;42890;44.244;22.530;2023-09-19T01:54:52;12.73;;;11.43;;
56997;SDS011;42890;44.244;22.530;2023-09-19T01:57:24;18.70;;;12.00;;
56997;SDS011;42890;44.244;22.530;2023-09-19T02:00:01;15.90;;;12.13;;
56997;SDS011;42890;44.244;22.530;2023-09-19T02:02:41;18.13;;;12.73;;
56997;SDS011;42890;44.244;22.530;2023-09-19T02:05:09;20.25;;;12.13;;
56997;SDS011;42890;44.244;22.530;2023-09-19T02:07:37;13.90;;;12.60;;
56997;SDS011;42890;44.244;22.530;2023-09-19T02:10:05;15.20;;;12.80;;
56997;SDS011;42890;44.244;22.530;2023-09-19T02:12:32;17.05;;;11.95;;
56997;SDS011;42890;44.244;22.530;2023-09-19T02:14:58;13.60;;;11.65;;
56997;SDS011;42890;44.244;22.530;2023-09-19T02:17:25;14.43;;;12.60;;
56997;SDS011;42890;44.244;22.530;2023-09-19T02:19:52;17.77;;;12.82;;
56997;SDS011;42890;44.244;22.530;2023-09-19T02:22:18;16.35;;;13.15;;
56997;SDS011;42890;44.244;22.530;2023-09-19T02:24:44;17.65;;;13.25;;
56997;SDS011;42890;44.244;22.530;2023-09-19T02:27:13;15.15;;;13.52;;
56997;SDS011;42890;44.244;22.530;2023-09-19T02:29:41;17.42;;;13.32;;
56997;SDS011;42890;44.244;22.530;2023-09-19T02:32:07;14.00;;;12.48;;
56997;SDS011;42890;44.244;22.530;2023-09-19T02:34:34;14.45;;;12.40;;
56997;SDS011;42890;44.244;22.530;2023-09-19T02:37:04;16.55;;;12.95;;
56997;SDS011;42890;44.244;22.530;2023-09-19T02:39:31;19.85;;;13.00;;
56997;SDS011;42890;44.244;22.530;2023-09-19T02:41:57;15.13;;;12.90;;
56997;SDS011;42890;44.244;22.530;2023-09-19T02:44:23;14.68;;;13.27;;
56997;SDS011;42890;44.244;22.530;2023-09-19T02:46:50;21.30;;;13.20;;
56997;SDS011;42890;44.244;22.530;2023-09-19T02:49:16;29.25;;;13.57;;
56997;SDS011;42890;44.244;22.530;2023-09-19T02:51:45;30.77;;;12.88;;
56997;SDS011;42890;44.244;22.530;2023-09-19T02:54:12;28.13;;;13.18;;
56997;SDS011;42890;44.244;22.530;2023-09-19T02:56:38;24.92;;;13.30;;
56997;SDS011;42890;44.244;22.530;2023-09-19T02:59:05;24.10;;;13.93;;
56997;SDS011;42890;44.244;22.530;2023-09-19T03:01:32;28.77;;;13.98;;
56997;SDS011;42890;44.244;22.530;2023-09-19T03:03:59;23.83;;;13.02;;
56997;SDS011;42890;44.244;22.530;2023-09-19T03:06:25;25.52;;;14.15;;
56997;SDS011;42890;44.244;22.530;2023-09-19T03:08:51;22.45;;;14.10;;
56997;SDS011;42890;44.244;22.530;2023-09-19T03:11:17;20.40;;;14.63;;
56997;SDS011;42890;44.244;22.530;2023-09-19T03:13:50;20.05;;;14.27;;
56997;SDS011;42890;44.244;22.530;2023-09-19T03:16:17;26.13;;;13.77;;
56997;SDS011;42890;44.244;22.530;2023-09-19T03:18:44;15.13;;;13.25;;
56997;SDS011;42890;44.244;22.530;2023-09-19T03:21:10;21.27;;;13.20;;
56997;SDS011;42890;44.244;22.530;2023-09-19T03:23:36;23.08;;;12.48;;
56997;SDS011;42890;44.244;22.530;2023-09-19T03:26:03;16.88;;;12.60;;
56997;SDS011;42890;44.244;22.530;2023-09-19T03:28:32;18.10;;;12.60;;
56997;SDS011;42890;44.244;22.530;2023-09-19T03:33:25;15.75;;;12.98;;
56997;SDS011;42890;44.244;22.530;2023-09-19T03:35:52;14.43;;;12.93;;
56997;SDS011;42890;44.244;22.530;2023-09-19T03:38:19;18.92;;;12.52;;
56997;SDS011;42890;44.244;22.530;2023-09-19T03:40:45;15.13;;;13.18;;
56997;SDS011;42890;44.244;22.530;2023-09-19T03:43:11;16.00;;;12.73;;
56997;SDS011;42890;44.244;22.530;2023-09-19T03:45:37;17.08;;;13.43;;
56997;SDS011;42890;44.244;22.530;2023-09-19T03:48:12;24.17;;;14.25;;
56997;SDS011;42890;44.244;22.530;2023-09-19T03:50:38;15.00;;;12.95;;
56997;SDS011;42890;44.244;22.530;2023-09-19T03:53:05;14.07;;;12.73;;
56997;SDS011;42890;44.244;22.530;2023-09-19T03:55:34;15.32;;;13.63;;
56997;SDS011;42890;44.244;22.530;2023-09-19T03:58:04;15.13;;;13.38;;
56997;SDS011;42890;44.244;22.530;2023-09-19T04:00:30;15.38;;;13.40;;
56997;SDS011;42890;44.244;22.530;2023-09-19T04:02:56;14.07;;;12.70;;
56997;SDS011;42890;44.244;22.530;2023-09-19T04:05:22;19.33;;;14.23;;
56997;SDS011;42890;44.244;22.530;2023-09-19T04:07:49;17.92;;;13.40;;
56997;SDS011;42890;44.244;22.530;2023-09-19T04:10:15;16.60;;;14.90;;
56997;SDS011;42890;44.244;22.530;2023-09-19T04:12:50;18.83;;;14.18;;
56997;SDS011;42890;44.244;22.530;2023-09-19T04:15:18;19.00;;;15.23;;
56997;SDS011;42890;44.244;22.530;2023-09-19T04:17:44;24.75;;;16.08;;
56997;SDS011;42890;44.244;22.530;2023-09-19T04:20:10;18.48;;;15.52;;
56997;SDS011;42890;44.244;22.530;2023-09-19T04:22:37;17.90;;;16.00;;
56997;SDS011;42890;44.244;22.530;2023-09-19T04:25:04;22.33;;;15.98;;
56997;SDS011;42890;44.244;22.530;2023-09-19T04:27:33;17.27;;;15.30;;
56997;SDS011;42890;44.244;22.530;2023-09-19T04:30:00;17.38;;;15.57;;
56997;SDS011;42890;44.244;22.530;2023-09-19T04:32:30;19.23;;;15.07;;
56997;SDS011;42890;44.244;22.530;2023-09-19T04:35:01;19.52;;;15.38;;
56997;SDS011;42890;44.244;22.530;2023-09-19T04:37:30;15.60;;;14.00;;
56997;SDS011;42890;44.244;22.530;2023-09-19T04:39:57;16.48;;;13.40;;
56997;SDS011;42890;44.244;22.530;2023-09-19T04:42:23;17.50;;;15.70;;
56997;SDS011;42890;44.244;22.530;2023-09-19T04:44:49;22.88;;;14.60;;
56997;SDS011;42890;44.244;22.530;2023-09-19T04:47:19;17.15;;;15.48;;
56997;SDS011;42890;44.244;22.530;2023-09-19T04:49:50;20.02;;;15.60;;
56997;SDS011;42890;44.244;22.530;2023-09-19T04:52:17;19.15;;;15.13;;
56997;SDS011;42890;44.244;22.530;2023-09-19T04:54:44;16.90;;;15.23;;
56997;SDS011;42890;44.244;22.530;2023-09-19T04:57:11;16.85;;;15.15;;
56997;SDS011;42890;44.244;22.530;2023-09-19T04:59:38;16.45;;;14.80;;
56997;SDS011;42890;44.244;22.530;2023-09-19T05:02:06;16.25;;;14.57;;
56997;SDS011;42890;44.244;22.530;2023-09-19T05:04:37;14.45;;;13.07;;
56997;SDS011;42890;44.244;22.530;2023-09-19T05:07:03;15.88;;;13.93;;
56997;SDS011;42890;44.244;22.530;2023-09-19T05:09:29;15.73;;;13.60;;
56997;SDS011;42890;44.244;22.530;2023-09-19T05:11:58;16.05;;;14.27;;
56997;SDS011;42890;44.244;22.530;2023-09-19T05:14:24;16.30;;;13.75;;
56997;SDS011;42890;44.244;22.530;2023-09-19T05:16:50;19.58;;;14.98;;
56997;SDS011;42890;44.244;22.530;2023-09-19T05:19:16;15.95;;;14.55;;
56997;SDS011;42890;44.244;22.530;2023-09-19T05:21:42;22.45;;;15.68;;
56997;SDS011;42890;44.244;22.530;2023-09-19T05:24:09;16.60;;;14.98;;
56997;SDS011;42890;44.244;22.530;2023-09-19T05:26:36;18.90;;;15.32;;
56997;SDS011;42890;44.244;22.530;2023-09-19T05:29:02;16.00;;;14.50;;
56997;SDS011;42890;44.244;22.530;2023-09-19T05:31:30;17.83;;;13.50;;
56997;SDS011;42890;44.244;22.530;2023-09-19T05:33:56;15.82;;;14.25;;
56997;SDS011;42890;44.244;22.530;2023-09-19T05:36:23;19.75;;;14.35;;
56997;SDS011;42890;44.244;22.530;2023-09-19T05:38:49;15.88;;;14.32;;
56997;SDS011;42890;44.244;22.530;2023-09-19T05:41:16;17.88;;;13.98;;
56997;SDS011;42890;44.244;22.530;2023-09-19T05:43:43;15.20;;;13.40;;
56997;SDS011;42890;44.244;22.530;2023-09-19T05:46:09;15.10;;;13.48;;
56997;SDS011;42890;44.244;22.530;2023-09-19T05:48:35;14.45;;;12.98;;
56997;SDS011;42890;44.244;22.530;2023-09-19T05:51:01;15.40;;;13.85;;
56997;SDS011;42890;44.244;22.530;2023-09-19T05:53:27;15.48;;;13.52;;
56997;SDS011;42890;44.244;22.530;2023-09-19T05:55:55;17.85;;;14.55;;
56997;SDS011;42890;44.244;22.530;2023-09-19T05:58:21;17.67;;;13.38;;
56997;SDS011;42890;44.244;22.530;2023-09-19T06:00:47;16.88;;;14.45;;
56997;SDS011;42890;44.244;22.530;2023-09-19T06:03:14;16.73;;;15.02;;
56997;SDS011;42890;44.244;22.530;2023-09-19T06:05:42;17.08;;;15.18;;
56997;SDS011;42890;44.244;22.530;2023-09-19T06:08:08;18.75;;;14.82;;
56997;SDS011;42890;44.244;22.530;2023-09-19T06:10:35;16.52;;;14.40;;
56997;SDS011;42890;44.244;22.530;2023-09-19T06:13:04;15.55;;;12.85;;
56997;SDS011;42890;44.244;22.530;2023-09-19T06:15:31;15.73;;;14.13;;
56997;SDS011;42890;44.244;22.530;2023-09-19T06:17:58;15.70;;;14.02;;
56997;SDS011;42890;44.244;22.530;2023-09-19T06:20:27;20.92;;;13.88;;
56997;SDS011;42890;44.244;22.530;2023-09-19T06:22:53;17.80;;;13.38;;
56997;SDS011;42890;44.244;22.530;2023-09-19T06:25:20;17.58;;;14.20;;
56997;SDS011;42890;44.244;22.530;2023-09-19T06:27:50;18.00;;;14.70;;
56997;SDS011;42890;44.244;22.530;2023-09-19T06:30:19;20.08;;;14.95;;
56997;SDS011;42890;44.244;22.530;2023-09-19T06:32:45;15.85;;;14.25;;
56997;SDS011;42890;44.244;22.530;2023-09-19T06:35:12;15.63;;;13.95;;
56997;SDS011;42890;44.244;22.530;2023-09-19T06:37:38;16.55;;;14.68;;
56997;SDS011;42890;44.244;22.530;2023-09-19T06:40:08;21.23;;;15.40;;
56997;SDS011;42890;44.244;22.530;2023-09-19T06:42:41;25.38;;;15.25;;
56997;SDS011;42890;44.244;22.530;2023-09-19T06:45:07;16.38;;;14.65;;
56997;SDS011;42890;44.244;22.530;2023-09-19T06:47:36;16.60;;;14.23;;
56997;SDS011;42890;44.244;22.530;2023-09-19T06:50:03;22.30;;;15.02;;
56997;SDS011;42890;44.244;22.530;2023-09-19T06:52:30;17.15;;;13.60;;
56997;SDS011;42890;44.244;22.530;2023-09-19T06:54:58;21.15;;;14.10;;
56997;SDS011;42890;44.244;22.530;2023-09-19T06:57:24;17.27;;;12.82;;
56997;SDS011;42890;44.244;22.530;2023-09-19T06:59:50;17.33;;;12.52;;
56997;SDS011;42890;44.244;22.530;2023-09-19T07:02:16;14.00;;;12.20;;
56997;SDS011;42890;44.244;22.530;2023-09-19T07:04:43;15.85;;;10.88;;
56997;SDS011;42890;44.244;22.530;2023-09-19T07:07:09;18.17;;;11.07;;
56997;SDS011;42890;44.244;22.530;2023-09-19T07:09:39;15.00;;;10.52;;
56997;SDS011;42890;44.244;22.530;2023-09-19T07:12:05;15.60;;;10.05;;
56997;SDS011;42890;44.244;22.530;2023-09-19T07:14:31;12.88;;;10.02;;
56997;SDS011;42890;44.244;22.530;2023-09-19T07:16:57;11.63;;;9.38;;
56997;SDS011;42890;44.244;22.530;2023-09-19T07:19:26;13.70;;;9.65;;
56997;SDS011;42890;44.244;22.530;2023-09-19T07:21:53;14.75;;;9.48;;
56997;SDS011;42890;44.244;22.530;2023-09-19T07:24:20;10.77;;;9.60;;
56997;SDS011;42890;44.244;22.530;2023-09-19T07:26:49;13.43;;;8.88;;
56997;SDS011;42890;44.244;22.530;2023-09-19T07:29:15;11.95;;;9.60;;
56997;SDS011;42890;44.244;22.530;2023-09-19T07:31:41;9.73;;;8.73;;
56997;SDS011;42890;44.244;22.530;2023-09-19T07:34:09;13.93;;;10.02;;
56997;SDS011;42890;44.244;22.530;2023-09-19T07:36:35;14.15;;;9.25;;
56997;SDS011;42890;44.244;22.530;2023-09-19T07:39:03;10.77;;;9.68;;
56997;SDS011;42890;44.244;22.530;2023-09-19T07:41:32;20.02;;;11.82;;
56997;SDS011;42890;44.244;22.530;2023-09-19T07:43:59;11.25;;;9.60;;
56997;SDS011;42890;44.244;22.530;2023-09-19T07:46:25;10.50;;;9.45;;
56997;SDS011;42890;44.244;22.530;2023-09-19T07:48:52;15.20;;;9.68;;
56997;SDS011;42890;44.244;22.530;2023-09-19T07:51:18;14.25;;;9.32;;
56997;SDS011;42890;44.244;22.530;2023-09-19T07:53:44;15.57;;;8.68;;
56997;SDS011;42890;44.244;22.530;2023-09-19T07:56:10;10.43;;;9.30;;
56997;SDS011;42890;44.244;22.530;2023-09-19T07:58:39;26.27;;;11.18;;
56997;SDS011;42890;44.244;22.530;2023-09-19T08:01:09;14.82;;;12.82;;
56997;SDS011;42890;44.244;22.530;2023-09-19T08:03:36;14.45;;;11.40;;
56997;SDS011;42890;44.244;22.530;2023-09-19T08:06:05;18.00;;;12.65;;
56997;SDS011;42890;44.244;22.530;2023-09-19T08:08:32;18.00;;;10.98;;
56997;SDS011;42890;44.244;22.530;2023-09-19T08:11:02;11.52;;;10.13;;
56997;SDS011;42890;44.244;22.530;2023-09-19T08:13:36;13.95;;;9.82;;
56997;SDS011;42890;44.244;22.530;2023-09-19T08:16:05;11.57;;;8.95;;
56997;SDS011;42890;44.244;22.530;2023-09-19T08:18:31;15.30;;;9.98;;
56997;SDS011;42890;44.244;22.530;2023-09-19T08:20:58;11.15;;;9.48;;
56997;SDS011;42890;44.244;22.530;2023-09-19T08:23:25;12.43;;;10.20;;
56997;SDS011;42890;44.244;22.530;2023-09-19T08:25:55;11.40;;;10.27;;
56997;SDS011;42890;44.244;22.530;2023-09-19T08:28:22;10.98;;;8.57;;
56997;SDS011;42890;44.244;22.530;2023-09-19T08:30:49;11.30;;;9.07;;
56997;SDS011;42890;44.244;22.530;2023-09-19T08:33:16;15.05;;;9.18;;
56997;SDS011;42890;44.244;22.530;2023-09-19T08:35:42;14.45;;;10.05;;
56997;SDS011;42890;44.244;22.530;2023-09-19T08:38:10;11.80;;;9.85;;
56997;SDS011;42890;44.244;22.530;2023-09-19T08:40:37;17.13;;;9.70;;
56997;SDS011;42890;44.244;22.530;2023-09-19T08:43:05;15.30;;;9.20;;
56997;SDS011;42890;44.244;22.530;2023-09-19T08:45:33;14.35;;;9.30;;
56997;SDS011;42890;44.244;22.530;2023-09-19T08:50:27;10.35;;;9.20;;
56997;SDS011;42890;44.244;22.530;2023-09-19T08:53:00;13.00;;;9.50;;
56997;SDS011;42890;44.244;22.530;2023-09-19T08:55:27;11.40;;;8.25;;
56997;SDS011;42890;44.244;22.530;2023-09-19T08:57:59;10.30;;;8.60;;
56997;SDS011;42890;44.244;22.530;2023-09-19T09:00:26;9.25;;;7.97;;
56997;SDS011;42890;44.244;22.530;2023-09-19T09:02:53;10.15;;;8.32;;
56997;SDS011;42890;44.244;22.530;2023-09-19T09:05:20;11.80;;;8.40;;
56997;SDS011;42890;44.244;22.530;2023-09-19T09:07:48;9.88;;;8.52;;
56997;SDS011;42890;44.244;22.530;2023-09-19T09:10:20;14.95;;;7.55;;
56997;SDS011;42890;44.244;22.530;2023-09-19T09:12:51;9.40;;;8.50;;
56997;SDS011;42890;44.244;22.530;2023-09-19T09:15:21;10.27;;;9.25;;
56997;SDS011;42890;44.244;22.530;2023-09-19T09:17:48;11.65;;;9.55;;
56997;SDS011;42890;44.244;22.530;2023-09-19T09:20:16;13.57;;;8.98;;
56997;SDS011;42890;44.244;22.530;2023-09-19T09:22:53;10.02;;;8.60;;
56997;SDS011;42890;44.244;22.530;2023-09-19T09:25:20;23.10;;;9.25;;
56997;SDS011;42890;44.244;22.530;2023-09-19T09:28:06;17.92;;;9.02;;
56997;SDS011;42890;44.244;22.530;2023-09-19T09:30:33;22.90;;;9.93;;
56997;SDS011;42890;44.244;22.530;2023-09-19T09:33:10;14.25;;;9.45;;
56997;SDS011;42890;44.244;22.530;2023-09-19T09:35:37;11.23;;;9.63;;
56997;SDS011;42890;44.244;22.530;2023-09-19T09:38:07;10.77;;;8.75;;
56997;SDS011;42890;44.244;22.530;2023-09-19T09:43:34;12.90;;;8.93;;
56997;SDS011;42890;44.244;22.530;2023-09-19T09:48:55;16.23;;;10.13;;
56997;SDS011;42890;44.244;22.530;2023-09-19T09:54:17;12.05;;;9.70;;
56997;SDS011;42890;44.244;22.530;2023-09-19T09:56:58;10.90;;;9.50;;
56997;SDS011;42890;44.244;22.530;2023-09-19T10:02:12;10.93;;;7.72;;
56997;SDS011;42890;44.244;22.530;2023-09-19T10:04:39;9.23;;;7.50;;
56997;SDS011;42890;44.244;22.530;2023-09-19T10:07:27;8.50;;;7.07;;
56997;SDS011;42890;44.244;22.530;2023-09-19T10:09:57;12.10;;;7.65;;
56997;SDS011;42890;44.244;22.530;2023-09-19T10:12:30;15.88;;;7.72;;
56997;SDS011;42890;44.244;22.530;2023-09-19T10:14:57;8.82;;;6.93;;
56997;SDS011;42890;44.244;22.530;2023-09-19T10:17:26;7.22;;;6.53;;
56997;SDS011;42890;44.244;22.530;2023-09-19T10:19:56;9.90;;;7.43;;
56997;SDS011;42890;44.244;22.530;2023-09-19T10:22:23;8.15;;;7.30;;
56997;SDS011;42890;44.244;22.530;2023-09-19T10:24:50;9.05;;;8.18;;
56997;SDS011;42890;44.244;22.530;2023-09-19T10:27:19;12.88;;;8.20;;
56997;SDS011;42890;44.244;22.530;2023-09-19T10:29:48;13.27;;;8.57;;
56997;SDS011;42890;44.244;22.530;2023-09-19T10:32:16;9.00;;;8.10;;
56997;SDS011;42890;44.244;22.530;2023-09-19T10:34:44;8.38;;;7.40;;
56997;SDS011;42890;44.244;22.530;2023-09-19T10:37:13;10.80;;;8.20;;
56997;SDS011;42890;44.244;22.530;2023-09-19T10:39:40;17.85;;;9.30;;
56997;SDS011;42890;44.244;22.530;2023-09-19T10:42:07;13.13;;;9.18;;
56997;SDS011;42890;44.244;22.530;2023-09-19T10:44:37;18.40;;;8.45;;
56997;SDS011;42890;44.244;22.530;2023-09-19T10:47:07;10.13;;;8.77;;
56997;SDS011;42890;44.244;22.530;2023-09-19T10:49:34;10.30;;;9.18;;
56997;SDS011;42890;44.244;22.530;2023-09-19T10:52:00;15.30;;;9.18;;
56997;SDS011;42890;44.244;22.530;2023-09-19T10:54:28;11.13;;;8.82;;
56997;SDS011;42890;44.244;22.530;2023-09-19T10:56:57;16.23;;;8.88;;
56997;SDS011;42890;44.244;22.530;2023-09-19T10:59:24;13.38;;;8.38;;
56997;SDS011;42890;44.244;22.530;2023-09-19T11:01:51;13.25;;;8.43;;
56997;SDS011;42890;44.244;22.530;2023-09-19T11:04:34;14.52;;;9.13;;
56997;SDS011;42890;44.244;22.530;2023-09-19T11:17:34;12.75;;;8.45;;
56997;SDS011;42890;44.244;22.530;2023-09-19T11:30:32;9.40;;;7.38;;
56997;SDS011;42890;44.244;22.530;2023-09-19T11:36:04;11.57;;;7.45;;
56997;SDS011;42890;44.244;22.530;2023-09-19T11:46:51;13.27;;;8.77;;
56997;SDS011;42890;44.244;22.530;2023-09-19T11:49:25;9.10;;;8.18;;
56997;SDS011;42890;44.244;22.530;2023-09-19T11:51:55;12.23;;;7.85;;
56997;SDS011;42890;44.244;22.530;2023-09-19T11:54:22;9.60;;;8.18;;
56997;SDS011;42890;44.244;22.530;2023-09-19T11:56:50;11.85;;;8.88;;
56997;SDS011;42890;44.244;22.530;2023-09-19T11:59:23;10.48;;;7.60;;
56997;SDS011;42890;44.244;22.530;2023-09-19T12:01:54;10.27;;;7.32;;
56997;SDS011;42890;44.244;22.530;2023-09-19T12:04:36;14.57;;;7.60;;
56997;SDS011;42890;44.244;22.530;2023-09-19T12:12:09;7.55;;;6.75;;
56997;SDS011;42890;44.244;22.530;2023-09-19T12:14:37;10.60;;;5.97;;
56997;SDS011;42890;44.244;22.530;2023-09-19T12:17:06;6.82;;;6.13;;
56997;SDS011;42890;44.244;22.530;2023-09-19T12:19:32;7.07;;;5.85;;
56997;SDS011;42890;44.244;22.530;2023-09-19T12:21:59;6.78;;;6.10;;
56997;SDS011;42890;44.244;22.530;2023-09-19T12:24:29;9.65;;;6.22;;
56997;SDS011;42890;44.244;22.530;2023-09-19T12:26:59;9.52;;;6.47;;
56997;SDS011;42890;44.244;22.530;2023-09-19T12:29:26;10.85;;;6.18;;
56997;SDS011;42890;44.244;22.530;2023-09-19T12:31:53;7.68;;;6.90;;
56997;SDS011;42890;44.244;22.530;2023-09-19T12:39:36;9.65;;;7.57;;
56997;SDS011;42890;44.244;22.530;2023-09-19T12:42:02;10.82;;;7.25;;
56997;SDS011;42890;44.244;22.530;2023-09-19T12:44:29;9.05;;;6.57;;
56997;SDS011;42890;44.244;22.530;2023-09-19T12:46:55;9.45;;;5.82;;
56997;SDS011;42890;44.244;22.530;2023-09-19T12:49:24;7.22;;;5.63;;
56997;SDS011;42890;44.244;22.530;2023-09-19T12:51:54;8.13;;;5.78;;
56997;SDS011;42890;44.244;22.530;2023-09-19T12:54:23;7.70;;;5.35;;
56997;SDS011;42890;44.244;22.530;2023-09-19T12:56:50;6.03;;;5.20;;
56997;SDS011;42890;44.244;22.530;2023-09-19T12:59:16;7.70;;;5.53;;
56997;SDS011;42890;44.244;22.530;2023-09-19T13:01:43;6.25;;;5.65;;
56997;SDS011;42890;44.244;22.530;2023-09-19T13:04:15;8.88;;;5.93;;
56997;SDS011;42890;44.244;22.530;2023-09-19T13:06:48;8.60;;;5.63;;
56997;SDS011;42890;44.244;22.530;2023-09-19T13:09:15;10.70;;;5.60;;
56997;SDS011;42890;44.244;22.530;2023-09-19T13:11:42;7.38;;;5.70;;
56997;SDS011;42890;44.244;22.530;2023-09-19T13:16:58;14.02;;;6.10;;
56997;SDS011;42890;44.244;22.530;2023-09-19T13:19:49;17.58;;;6.32;;
56997;SDS011;42890;44.244;22.530;2023-09-19T13:22:39;20.60;;;7.88;;
56997;SDS011;42890;44.244;22.530;2023-09-19T13:25:09;6.80;;;5.50;;
56997;SDS011;42890;44.244;22.530;2023-09-19T13:27:40;9.02;;;5.72;;
56997;SDS011;42890;44.244;22.530;2023-09-19T13:30:06;7.78;;;5.47;;
56997;SDS011;42890;44.244;22.530;2023-09-19T13:32:32;11.13;;;5.93;;
56997;SDS011;42890;44.244;22.530;2023-09-19T13:34:59;8.70;;;6.53;;
56997;SDS011;42890;44.244;22.530;2023-09-19T13:37:25;16.67;;;6.70;;
56997;SDS011;42890;44.244;22.530;2023-09-19T13:39:51;7.82;;;5.63;;
56997;SDS011;42890;44.244;22.530;2023-09-19T13:42:18;7.57;;;6.10;;
56997;SDS011;42890;44.244;22.530;2023-09-19T13:44:47;9.95;;;6.03;;
56997;SDS011;42890;44.244;22.530;2023-09-19T13:47:13;7.70;;;5.75;;
56997;SDS011;42890;44.244;22.530;2023-09-19T13:49:40;8.88;;;6.00;;
56997;SDS011;42890;44.244;22.530;2023-09-19T13:52:08;10.23;;;5.35;;
56997;SDS011;42890;44.244;22.530;2023-09-19T13:54:34;10.00;;;6.22;;
56997;SDS011;42890;44.244;22.530;2023-09-19T13:57:00;10.23;;;5.93;;
56997;SDS011;42890;44.244;22.530;2023-09-19T13:59:26;8.80;;;5.50;;
56997;SDS011;42890;44.244;22.530;2023-09-19T14:01:53;8.07;;;6.00;;
56997;SDS011;42890;44.244;22.530;2023-09-19T14:04:19;9.40;;;5.68;;
56997;SDS011;42890;44.244;22.530;2023-09-19T14:06:47;6.75;;;6.07;;
56997;SDS011;42890;44.244;22.530;2023-09-19T14:09:13;11.70;;;5.53;;
56997;SDS011;42890;44.244;22.530;2023-09-19T14:11:41;7.38;;;6.47;;
56997;SDS011;42890;44.244;22.530;2023-09-19T14:14:11;8.85;;;6.00;;
56997;SDS011;42890;44.244;22.530;2023-09-19T14:16:37;7.30;;;6.07;;
56997;SDS011;42890;44.244;22.530;2023-09-19T14:19:04;7.22;;;6.03;;
56997;SDS011;42890;44.244;22.530;2023-09-19T14:21:33;10.07;;;6.40;;
56997;SDS011;42890;44.244;22.530;2023-09-19T14:24:01;7.75;;;6.32;;
56997;SDS011;42890;44.244;22.530;2023-09-19T14:26:27;7.25;;;6.20;;
56997;SDS011;42890;44.244;22.530;2023-09-19T14:28:54;9.52;;;6.35;;
56997;SDS011;42890;44.244;22.530;2023-09-19T14:31:20;10.45;;;6.40;;
56997;SDS011;42890;44.244;22.530;2023-09-19T14:33:52;8.43;;;6.28;;
56997;SDS011;42890;44.244;22.530;2023-09-19T14:36:19;12.38;;;6.38;;
56997;SDS011;42890;44.244;22.530;2023-09-19T14:38:46;7.72;;;6.90;;
56997;SDS011;42890;44.244;22.530;2023-09-19T14:41:13;8.38;;;7.07;;
56997;SDS011;42890;44.244;22.530;2023-09-19T14:43:39;12.48;;;7.57;;
56997;SDS011;42890;44.244;22.530;2023-09-19T14:46:05;8.30;;;6.97;;
56997;SDS011;42890;44.244;22.530;2023-09-19T14:48:35;11.48;;;7.07;;
56997;SDS011;42890;44.244;22.530;2023-09-19T14:51:02;9.88;;;7.43;;
56997;SDS011;42890;44.244;22.530;2023-09-19T14:53:29;12.15;;;7.03;;
56997;SDS011;42890;44.244;22.530;2023-09-19T14:55:55;10.82;;;7.38;;
56997;SDS011;42890;44.244;22.530;2023-09-19T14:58:21;13.25;;;8.30;;
56997;SDS011;42890;44.244;22.530;2023-09-19T15:00:47;9.55;;;8.63;;
56997;SDS011;42890;44.244;22.530;2023-09-19T15:03:13;9.95;;;8.77;;
56997;SDS011;42890;44.244;22.530;2023-09-19T15:05:40;10.80;;;8.35;;
56997;SDS011;42890;44.244;22.530;2023-09-19T15:08:06;8.32;;;7.55;;
56997;SDS011;42890;44.244;22.530;2023-09-19T15:10:32;8.75;;;7.70;;
56997;SDS011;42890;44.244;22.530;2023-09-19T15:13:00;11.93;;;7.35;;
56997;SDS011;42890;44.244;22.530;2023-09-19T15:15:26;8.82;;;7.68;;
56997;SDS011;42890;44.244;22.530;2023-09-19T15:17:52;8.95;;;7.20;;
56997;SDS011;42890;44.244;22.530;2023-09-19T15:20:18;8.40;;;6.90;;
56997;SDS011;42890;44.244;22.530;2023-09-19T15:22:44;8.40;;;7.07;;
56997;SDS011;42890;44.244;22.530;2023-09-19T15:25:11;8.88;;;7.82;;
56997;SDS011;42890;44.244;22.530;2023-09-19T15:27:37;11.20;;;7.03;;
56997;SDS011;42890;44.244;22.530;2023-09-19T15:30:03;10.07;;;7.20;;
56997;SDS011;42890;44.244;22.530;2023-09-19T15:32:30;8.80;;;7.38;;
56997;SDS011;42890;44.244;22.530;2023-09-19T15:34:57;7.60;;;6.82;;
56997;SDS011;42890;44.244;22.530;2023-09-19T15:37:23;8.20;;;7.40;;
56997;SDS011;42890;44.244;22.530;2023-09-19T15:39:51;8.68;;;7.75;;
56997;SDS011;42890;44.244;22.530;2023-09-19T15:42:17;8.18;;;7.38;;